createdAt,value
2023-05-21T00:01:27.927Z,6.15
2023-05-21T00:03:55.770Z,6.60
2023-05-21T00:06:23.359Z,7.50
2023-05-21T00:08:51.018Z,6.78
2023-05-21T00:11:19.013Z,6.55
2023-05-21T00:13:46.472Z,6.43
2023-05-21T00:16:13.997Z,6.65
2023-05-21T00:18:41.955Z,6.47
2023-05-21T00:21:09.360Z,6.95
2023-05-21T00:23:37.733Z,7.10
2023-05-21T00:26:05.571Z,6.68
2023-05-21T00:28:33.027Z,6.43
2023-05-21T00:31:00.658Z,6.85
2023-05-21T00:33:29.280Z,6.82
2023-05-21T00:35:57.354Z,6.68
2023-05-21T00:38:27.905Z,6.95
2023-05-21T00:40:56.210Z,6.97
2023-05-21T00:43:26.539Z,6.68
2023-05-21T00:45:56.306Z,6.20
2023-05-21T00:48:24.354Z,6.80
2023-05-21T00:50:52.970Z,6.65
2023-05-21T00:53:20.759Z,6.07
2023-05-21T00:55:49.111Z,6.43
2023-05-21T00:58:17.919Z,6.47
2023-05-21T01:00:45.790Z,7.25
2023-05-21T01:03:13.950Z,6.30
2023-05-21T01:05:45.068Z,6.80
2023-05-21T01:08:12.929Z,7.10
2023-05-21T01:10:40.523Z,6.85
2023-05-21T01:13:08.278Z,6.87
2023-05-21T01:15:37.981Z,6.60
2023-05-21T01:18:06.005Z,6.57
2023-05-21T01:20:33.585Z,6.78
2023-05-21T01:23:02.246Z,7.55
2023-05-21T01:25:30.197Z,6.93
2023-05-21T01:27:57.989Z,6.62
2023-05-21T01:30:26.078Z,6.75
2023-05-21T01:33:13.021Z,6.07
2023-05-21T01:36:15.830Z,6.70
2023-05-21T01:38:49.388Z,6.53
2023-05-21T01:41:18.357Z,7.10
2023-05-21T01:43:46.562Z,6.35
2023-05-21T01:46:18.179Z,7.07
2023-05-21T01:51:13.963Z,6.35
2023-05-21T01:53:41.447Z,6.45
2023-05-21T01:56:09.183Z,6.47
2023-05-21T01:58:37.251Z,6.22
2023-05-21T02:01:05.779Z,5.93
2023-05-21T02:03:33.959Z,6.00
2023-05-21T02:06:01.490Z,6.57
2023-05-21T02:08:29.791Z,6.65
2023-05-21T02:10:57.485Z,6.18
2023-05-21T02:13:26.533Z,6.60
2023-05-21T02:15:56.076Z,6.20
2023-05-21T02:18:23.973Z,5.97
2023-05-21T02:20:51.724Z,6.05
2023-05-21T02:23:19.202Z,6.30
2023-05-21T02:25:47.064Z,6.35
2023-05-21T02:28:15.965Z,6.80
2023-05-21T02:30:43.435Z,5.82
2023-05-21T02:33:14.211Z,6.47
2023-05-21T02:35:42.087Z,6.10
2023-05-21T02:38:10.562Z,5.60
2023-05-21T02:40:38.079Z,6.18
2023-05-21T02:43:06.171Z,6.05
2023-05-21T02:45:33.788Z,6.32
2023-05-21T02:48:01.792Z,6.18
2023-05-21T02:50:30.650Z,6.12
2023-05-21T02:52:59.712Z,6.25
2023-05-21T02:55:27.623Z,6.25
2023-05-21T02:57:55.358Z,6.45
2023-05-21T03:00:22.898Z,6.43
2023-05-21T03:02:50.451Z,6.28
2023-05-21T03:05:18.251Z,6.22
2023-05-21T03:07:45.927Z,6.00
2023-05-21T03:10:13.397Z,5.75
2023-05-21T03:12:41.352Z,6.00
2023-05-21T03:15:09.480Z,5.72
2023-05-21T03:17:36.901Z,6.30
2023-05-21T03:20:05.341Z,6.47
2023-05-21T03:22:32.992Z,6.35
2023-05-21T03:25:01.894Z,7.20
2023-05-21T03:27:29.727Z,6.53
2023-05-21T03:29:59.360Z,6.20
2023-05-21T03:32:28.092Z,6.37
2023-05-21T03:34:56.098Z,6.30
2023-05-21T03:37:24.690Z,6.32
2023-05-21T03:39:52.435Z,5.72
2023-05-21T03:42:20.221Z,6.60
2023-05-21T03:44:47.990Z,6.55
2023-05-21T03:47:16.101Z,5.07
2023-05-21T03:49:43.874Z,6.40
2023-05-21T03:52:11.452Z,5.82
2023-05-21T03:54:39.004Z,5.68
2023-05-21T03:57:07.246Z,6.22
2023-05-21T03:59:35.358Z,6.10
2023-05-21T04:02:03.199Z,5.50
2023-05-21T04:04:31.004Z,5.60
2023-05-21T04:06:59.606Z,5.40
2023-05-21T04:09:27.808Z,5.45
2023-05-21T04:11:55.865Z,6.20
2023-05-21T04:14:23.613Z,5.55
2023-05-21T04:16:51.992Z,5.97
2023-05-21T04:19:20.864Z,5.05
2023-05-21T04:21:50.141Z,5.47
2023-05-21T04:24:18.841Z,5.20
2023-05-21T04:26:48.143Z,5.20
2023-05-21T04:29:21.096Z,4.87
2023-05-21T04:31:49.781Z,4.97
2023-05-21T04:34:17.887Z,4.45
2023-05-21T04:36:45.843Z,4.85
2023-05-21T04:39:14.601Z,4.93
2023-05-21T04:41:42.042Z,5.28
2023-05-21T04:44:10.025Z,4.68
2023-05-21T04:46:39.649Z,4.65
2023-05-21T04:49:10.193Z,4.70
2023-05-21T04:51:39.982Z,5.22
2023-05-21T04:54:08.018Z,4.95
2023-05-21T04:56:35.693Z,5.03
2023-05-21T04:59:05.598Z,4.25
2023-05-21T05:01:35.131Z,5.12
2023-05-21T05:04:02.972Z,5.37
2023-05-21T05:06:31.141Z,5.50
2023-05-21T05:08:58.724Z,4.72
2023-05-21T05:11:26.739Z,4.65
2023-05-21T05:13:54.388Z,4.90
2023-05-21T05:16:25.756Z,4.87
2023-05-21T05:18:54.155Z,4.90
2023-05-21T05:21:22.521Z,4.82
2023-05-21T05:23:50.164Z,4.65
2023-05-21T05:26:18.263Z,4.70
2023-05-21T05:28:46.326Z,5.03
2023-05-21T05:31:13.890Z,4.68
2023-05-21T05:33:43.227Z,4.68
2023-05-21T05:36:11.849Z,5.00
2023-05-21T05:38:40.074Z,5.12
2023-05-21T05:41:07.884Z,5.12
2023-05-21T05:43:35.571Z,5.00
2023-05-21T05:46:03.547Z,5.18
2023-05-21T05:48:31.553Z,4.95
2023-05-21T05:50:59.153Z,4.82
2023-05-21T05:53:26.746Z,4.53
2023-05-21T05:55:54.609Z,4.47
2023-05-21T05:58:22.137Z,4.78
2023-05-21T06:00:49.798Z,4.37
2023-05-21T06:03:18.779Z,4.20
2023-05-21T06:05:46.376Z,5.80
2023-05-21T06:08:13.988Z,4.37
2023-05-21T06:10:41.662Z,3.80
2023-05-21T06:13:09.639Z,4.10
2023-05-21T06:15:37.450Z,4.57
2023-05-21T06:18:05.521Z,4.10
2023-05-21T06:20:33.430Z,4.18
2023-05-21T06:23:01.082Z,4.20
2023-05-21T06:25:28.846Z,4.10
2023-05-21T06:27:56.902Z,4.07
2023-05-21T06:30:24.614Z,4.25
2023-05-21T06:32:53.778Z,3.90
2023-05-21T06:35:21.961Z,4.30
2023-05-21T06:37:49.497Z,4.60
2023-05-21T06:40:17.535Z,4.43
2023-05-21T06:42:46.165Z,4.43
2023-05-21T06:45:17.062Z,4.00
2023-05-21T06:47:44.948Z,4.20
2023-05-21T06:50:12.452Z,4.47
2023-05-21T06:52:39.889Z,3.87
2023-05-21T06:55:08.154Z,4.15
2023-05-21T06:57:38.474Z,3.62
2023-05-21T07:00:07.029Z,4.25
2023-05-21T07:02:35.284Z,4.30
2023-05-21T07:05:03.010Z,4.20
2023-05-21T07:07:30.487Z,4.18
2023-05-21T07:09:58.225Z,3.70
2023-05-21T07:12:26.069Z,4.03
2023-05-21T07:14:53.590Z,3.90
2023-05-21T07:17:21.428Z,3.72
2023-05-21T07:19:48.932Z,3.78
2023-05-21T07:22:16.402Z,4.15
2023-05-21T07:24:44.136Z,3.90
2023-05-21T07:27:24.872Z,4.00
2023-05-21T07:29:54.456Z,3.70
2023-05-21T07:32:22.871Z,3.67
2023-05-21T07:34:52.131Z,4.10
2023-05-21T07:37:21.510Z,3.83
2023-05-21T07:39:48.950Z,4.00
2023-05-21T07:42:17.153Z,3.87
2023-05-21T07:44:45.483Z,3.70
2023-05-21T07:47:12.941Z,4.30
2023-05-21T07:49:40.524Z,4.28
2023-05-21T07:52:08.352Z,3.70
2023-05-21T07:54:35.943Z,3.53
2023-05-21T07:57:03.505Z,3.40
2023-05-21T07:59:38.424Z,3.75
2023-05-21T08:02:06.339Z,4.07
2023-05-21T08:04:34.170Z,3.83
2023-05-21T08:07:01.868Z,4.45
2023-05-21T08:09:29.572Z,3.75
2023-05-21T08:11:58.341Z,3.85
2023-05-21T08:14:26.076Z,4.50
2023-05-21T08:16:53.810Z,4.20
2023-05-21T08:19:22.033Z,7.18
2023-05-21T08:21:52.086Z,5.55
2023-05-21T08:26:50.667Z,4.37
2023-05-21T08:29:18.605Z,4.45
2023-05-21T08:31:46.612Z,4.37
2023-05-21T08:34:14.386Z,5.10
2023-05-21T08:36:43.370Z,4.62
2023-05-21T08:39:15.180Z,4.60
2023-05-21T08:41:49.452Z,4.20
2023-05-21T08:44:21.618Z,4.10
2023-05-21T08:46:50.845Z,4.15
2023-05-21T08:49:19.512Z,9.00
2023-05-21T08:51:47.459Z,4.97
2023-05-21T08:54:15.580Z,4.32
2023-05-21T08:56:47.013Z,4.45
2023-05-21T08:59:17.156Z,3.92
2023-05-21T09:01:46.063Z,7.10
2023-05-21T09:04:20.831Z,4.68
2023-05-21T09:06:49.997Z,4.18
2023-05-21T09:09:28.303Z,4.30
2023-05-21T09:11:56.110Z,5.50
2023-05-21T09:14:23.866Z,6.12
2023-05-21T09:16:51.990Z,5.40
2023-05-21T09:19:22.180Z,4.03
2023-05-21T09:21:53.053Z,4.43
2023-05-21T09:24:24.169Z,5.00
2023-05-21T09:26:52.461Z,4.45
2023-05-21T09:29:20.258Z,5.22
2023-05-21T09:31:48.131Z,4.70
2023-05-21T09:34:16.461Z,4.97
2023-05-21T09:36:44.210Z,4.80
2023-05-21T09:39:16.408Z,4.07
2023-05-21T09:41:44.159Z,4.47
2023-05-21T09:44:12.054Z,3.50
2023-05-21T09:46:40.684Z,4.10
2023-05-21T09:49:23.634Z,4.00
2023-05-21T09:51:58.262Z,3.70
2023-05-21T09:54:26.549Z,4.12
2023-05-21T09:56:54.302Z,3.85
2023-05-21T09:59:22.197Z,3.67
2023-05-21T10:01:53.087Z,4.95
2023-05-21T10:04:21.927Z,4.10
2023-05-21T10:06:49.935Z,3.83
2023-05-21T10:09:19.124Z,3.72
2023-05-21T10:11:47.431Z,3.67
2023-05-21T10:14:20.556Z,4.07
2023-05-21T10:16:48.551Z,3.50
2023-05-21T10:19:16.565Z,3.58
2023-05-21T10:21:45.018Z,3.33
2023-05-21T10:24:13.322Z,3.92
2023-05-21T10:26:41.407Z,3.37
2023-05-21T10:29:09.101Z,3.80
2023-05-21T10:31:38.857Z,3.87
2023-05-21T10:34:06.475Z,3.40
2023-05-21T10:36:34.432Z,3.67
2023-05-21T10:39:02.885Z,3.90
2023-05-21T10:41:38.170Z,3.50
2023-05-21T10:44:15.435Z,3.92
2023-05-21T10:46:54.990Z,5.50
2023-05-21T10:49:46.881Z,5.87
2023-05-21T10:52:43.257Z,3.70
2023-05-21T10:55:17.601Z,3.85
2023-05-21T10:58:12.714Z,3.67
2023-05-21T11:00:46.649Z,4.50
2023-05-21T11:03:15.110Z,4.57
2023-05-21T11:05:55.307Z,3.97
2023-05-21T11:08:23.966Z,3.75
2023-05-21T11:10:53.464Z,4.10
2023-05-21T11:13:21.767Z,6.22
2023-05-21T11:16:08.118Z,3.90
2023-05-21T11:18:35.717Z,3.50
2023-05-21T11:21:10.280Z,3.47
2023-05-21T11:24:01.485Z,5.90
2023-05-21T11:26:47.826Z,3.35
2023-05-21T11:29:15.967Z,3.80
2023-05-21T11:31:48.401Z,3.28
2023-05-21T11:34:21.868Z,3.92
2023-05-21T11:36:49.918Z,3.85
2023-05-21T11:39:22.190Z,3.92
2023-05-21T11:42:07.970Z,3.25
2023-05-21T11:44:43.079Z,3.58
2023-05-21T11:47:13.016Z,3.45
2023-05-21T11:49:40.858Z,3.72
2023-05-21T11:52:09.306Z,3.70
2023-05-21T11:54:46.211Z,3.65
2023-05-21T11:57:18.753Z,3.62
2023-05-21T11:59:46.915Z,3.22
2023-05-21T12:02:18.381Z,4.30
2023-05-21T12:04:48.436Z,3.70
2023-05-21T12:07:17.283Z,4.03
2023-05-21T12:09:49.414Z,3.78
2023-05-21T12:12:22.377Z,4.40
2023-05-21T12:14:51.304Z,3.55
2023-05-21T12:17:23.272Z,3.75
2023-05-21T12:22:18.688Z,6.62
2023-05-21T12:24:46.484Z,4.55
2023-05-21T12:27:16.755Z,4.03
2023-05-21T12:29:49.422Z,4.25
2023-05-21T12:32:16.891Z,3.78
2023-05-21T12:34:46.603Z,3.60
2023-05-21T12:37:26.929Z,4.37
2023-05-21T12:39:56.325Z,3.72
2023-05-21T12:42:37.326Z,3.60
2023-05-21T12:45:09.417Z,3.50
